Abresso Airport


Codes: WASC/RSK
Name: Abresso Airport
City: Ransiki-Papua Island
Country: Indonesia
Elevation: 52 ft.

Photos at Abresso Airport


   Photos courtesy of SpottingLog. You can add your own sightings and photos by signing up for a free trial today.



No photos found.

Weather at Abresso Airport


Time (UTC)DescriptionTempratureWindCloud coverageVisibilityPressureHumidity
19-Apr-2024 03:00Light Rain27°C2 mph, S100%10000m1009hPa90%
19-Apr-2024 06:00Light Rain27°C4 mph, SW100%10000m1009hPa91%
19-Apr-2024 09:00Light Rain27°C4 mph, SW100%10000m1008hPa89%
19-Apr-2024 12:00Light Rain26°C2 mph, SW100%10000m1010hPa88%
19-Apr-2024 15:00Overcast Clouds26°C2 mph, W100%10000m1010hPa87%
19-Apr-2024 18:00Light Rain26°C4 mph, W100%10000m1009hPa85%
19-Apr-2024 21:00Light Rain26°C4 mph, SW100%10000m1010hPa85%
20-Apr-2024 00:00Light Rain28°C4 mph, S100%10000m1011hPa85%
20-Apr-2024 03:00Light Rain30°C4 mph, SE96%10000m1009hPa75%
20-Apr-2024 06:00Light Rain29°C4 mph, SE91%10000m1007hPa77%
20-Apr-2024 09:00Light Rain27°C2 mph, NE58%10000m1008hPa86%
20-Apr-2024 12:00Light Rain27°C4 mph, N79%10000m1011hPa86%
20-Apr-2024 15:00Broken Clouds26°C4 mph, NW71%10000m1010hPa82%
20-Apr-2024 18:00Light Rain26°C4 mph, NW65%10000m1009hPa78%
20-Apr-2024 21:00Overcast Clouds26°C4 mph, NW85%10000m1010hPa83%
21-Apr-2024 00:00Broken Clouds29°C4 mph, NE83%10000m1010hPa72%
21-Apr-2024 03:00Scattered Clouds30°C9 mph, E40%10000m1008hPa68%
21-Apr-2024 06:00Broken Clouds30°C9 mph, NE65%10000m1006hPa72%
21-Apr-2024 09:00Overcast Clouds28°C7 mph, NE100%10000m1008hPa85%
21-Apr-2024 12:00Overcast Clouds27°C7 mph, N100%10000m1010hPa82%
21-Apr-2024 15:00Overcast Clouds26°C11 mph, N100%10000m1010hPa80%
21-Apr-2024 18:00Overcast Clouds26°C9 mph, N92%10000m1009hPa80%
21-Apr-2024 21:00Light Rain25°C7 mph, NW74%10000m1010hPa75%
22-Apr-2024 00:00Broken Clouds29°C4 mph, NE83%10000m1011hPa70%
22-Apr-2024 03:00Overcast Clouds30°C7 mph, E94%10000m1008hPa69%
22-Apr-2024 06:00Broken Clouds30°C7 mph, E81%10000m1006hPa72%
22-Apr-2024 09:00Scattered Clouds28°C4 mph, N25%10000m1007hPa81%
22-Apr-2024 12:00Broken Clouds27°C4 mph, NW52%10000m1010hPa80%
22-Apr-2024 15:00Broken Clouds26°C4 mph, NW54%10000m1009hPa75%
22-Apr-2024 18:00Broken Clouds25°C4 mph, NW70%10000m1008hPa73%
22-Apr-2024 21:00Broken Clouds25°C4 mph, NW58%10000m1009hPa74%
23-Apr-2024 00:00Broken Clouds29°C4 mph, NE78%10000m1010hPa70%
23-Apr-2024 03:00Light Rain30°C9 mph, E50%10000m1008hPa72%
23-Apr-2024 06:00Scattered Clouds30°C9 mph, NE46%10000m1006hPa73%
23-Apr-2024 09:00Overcast Clouds28°C4 mph, NE100%10000m1008hPa86%
23-Apr-2024 12:00Overcast Clouds27°C7 mph, NW99%10000m1010hPa85%
23-Apr-2024 15:00Light Rain26°C4 mph, NW99%10000m1010hPa76%
23-Apr-2024 18:00Light Rain26°C7 mph, NW100%10000m1009hPa72%
23-Apr-2024 21:00Light Rain26°C4 mph, NW69%10000m1010hPa75%
24-Apr-2024 00:00Broken Clouds29°C4 mph, SE66%10000m1011hPa68%